createdAt,value
2023-04-05T00:01:53.847Z,94848.35
2023-04-05T00:04:24.051Z,94844.64
2023-04-05T00:06:54.128Z,94839.81
2023-04-05T00:09:22.869Z,94840.12
2023-04-05T00:11:51.594Z,94847.98
2023-04-05T00:14:20.449Z,94836.33
2023-04-05T00:16:49.123Z,94837.19
2023-04-05T00:19:17.838Z,94834.48
2023-04-05T00:21:48.211Z,94839.72
2023-04-05T00:24:17.330Z,94827.92
2023-04-05T00:26:53.728Z,94827.88
2023-04-05T00:29:22.483Z,94829.32
2023-04-05T00:31:51.490Z,94839.27
2023-04-05T00:34:23.223Z,94830.95
2023-04-05T00:36:53.656Z,94839.27
2023-04-05T00:39:25.490Z,94838.19
2023-04-05T00:41:54.269Z,94839.41
2023-04-05T00:44:23.153Z,94849.84
2023-04-05T00:46:53.813Z,94842.97
2023-04-05T00:49:23.033Z,94842.66
2023-04-05T00:51:52.321Z,94843.45
2023-04-05T00:54:21.029Z,94838.66
2023-04-05T00:56:51.520Z,94840.34
2023-04-05T00:59:21.508Z,94848.21
2023-04-05T01:01:55.088Z,94847.53
2023-04-05T01:04:30.771Z,94846.36
2023-04-05T01:07:03.296Z,94853.00
2023-04-05T01:09:56.113Z,94848.81
2023-04-05T01:12:27.352Z,94850.84
2023-04-05T01:14:59.219Z,94857.61
2023-04-05T01:17:32.509Z,94857.07
2023-04-05T01:20:04.691Z,94856.56
2023-04-05T01:22:57.148Z,94865.73
2023-04-05T01:25:48.322Z,94861.46
2023-04-05T01:28:38.052Z,94785.64
2023-04-05T01:31:32.060Z,94857.30
2023-04-05T01:34:04.178Z,94861.86
2023-04-05T01:36:35.855Z,94859.92
2023-04-05T01:39:06.826Z,94857.78
2023-04-05T01:41:35.955Z,94868.87
2023-04-05T01:44:06.396Z,94859.55
2023-04-05T01:46:35.203Z,94862.94
2023-04-05T01:49:04.783Z,94858.47
2023-04-05T01:51:33.431Z,94862.41
2023-04-05T01:54:03.986Z,94860.32
2023-04-05T01:56:32.586Z,94859.33
2023-04-05T01:59:01.232Z,94863.94
2023-04-05T02:01:31.133Z,94854.53
2023-04-05T02:04:00.252Z,94856.22
2023-04-05T02:06:30.909Z,94863.03
2023-04-05T02:08:59.622Z,94863.94
2023-04-05T02:11:32.343Z,94863.63
2023-04-05T02:14:01.080Z,94860.86
2023-04-05T02:16:32.943Z,94865.70
2023-04-05T02:19:02.528Z,94861.55
2023-04-05T02:21:32.149Z,94862.55
2023-04-05T02:24:06.345Z,94867.78
2023-04-05T02:26:35.073Z,94863.03
2023-04-05T02:29:03.843Z,94864.66
2023-04-05T02:31:32.690Z,94865.08
2023-04-05T02:34:02.025Z,94871.12
2023-04-05T02:36:30.881Z,94866.39
2023-04-05T02:38:59.630Z,94867.33
2023-04-05T02:41:28.327Z,94866.96
2023-04-05T02:43:57.044Z,94872.03
2023-04-05T02:46:25.951Z,94867.33
2023-04-05T02:48:54.720Z,94861.77
2023-04-05T02:51:25.492Z,94866.24
2023-04-05T02:53:54.289Z,94856.07
2023-04-05T02:56:23.127Z,94860.46
2023-04-05T02:58:51.854Z,94849.16
2023-04-05T03:01:20.586Z,94854.53
2023-04-05T03:03:51.737Z,94857.38
2023-04-05T03:06:20.895Z,94855.91
2023-04-05T03:08:49.781Z,94854.68
2023-04-05T03:11:21.457Z,94861.01
2023-04-05T03:13:50.061Z,94858.70
2023-04-05T03:16:20.365Z,94858.24
2023-04-05T03:18:50.266Z,94857.92
2023-04-05T03:21:19.319Z,94858.41
2023-04-05T03:23:48.617Z,94860.80
2023-04-05T03:26:17.574Z,94866.64
2023-04-05T03:28:46.313Z,94865.88
2023-04-05T03:31:15.136Z,94856.30
2023-04-05T03:33:45.784Z,94854.08
2023-04-05T03:36:16.096Z,94860.86
2023-04-05T03:38:46.284Z,94855.25
2023-04-05T03:41:16.477Z,94858.10
2023-04-05T03:43:47.048Z,94864.88
2023-04-05T03:46:15.827Z,94870.31
2023-04-05T03:48:44.652Z,94865.33
2023-04-05T03:51:13.522Z,94874.11
2023-04-05T03:53:42.432Z,94872.25
2023-04-05T03:56:11.325Z,94871.89
2023-04-05T03:58:40.527Z,94876.73
2023-04-05T04:01:09.382Z,94880.44
2023-04-05T04:03:38.246Z,94880.66
2023-04-05T04:06:08.171Z,94883.59
2023-04-05T04:08:37.082Z,94883.95
2023-04-05T04:11:06.850Z,94890.73
2023-04-05T04:13:36.108Z,94891.59
2023-04-05T04:16:05.094Z,94888.53
2023-04-05T04:18:33.978Z,94887.80
2023-04-05T04:21:09.060Z,94887.13
2023-04-05T04:23:41.009Z,94885.41
2023-04-05T04:26:10.483Z,94894.22
2023-04-05T04:28:39.832Z,94890.52
2023-04-05T04:31:13.106Z,94893.68
2023-04-05T04:33:43.399Z,94892.32
2023-04-05T04:36:13.969Z,94888.79
2023-04-05T04:38:45.110Z,94892.41
2023-04-05T04:41:18.580Z,94891.47
2023-04-05T04:43:49.184Z,94895.58
2023-04-05T04:46:19.314Z,94890.25
2023-04-05T04:48:50.146Z,94894.09
2023-04-05T04:51:20.019Z,94892.50
2023-04-05T04:53:48.713Z,94897.52
2023-04-05T04:56:17.628Z,94894.71
2023-04-05T04:58:46.416Z,94898.11
2023-04-05T05:01:15.227Z,94897.20
2023-04-05T05:03:44.549Z,94896.20
2023-04-05T05:06:15.326Z,94902.08
2023-04-05T05:08:44.244Z,94899.74
2023-04-05T05:11:14.833Z,94900.69
2023-04-05T05:13:43.614Z,94898.35
2023-04-05T05:16:12.441Z,94902.20
2023-04-05T05:18:41.819Z,94894.34
2023-04-05T05:21:12.108Z,94901.90
2023-04-05T05:23:40.918Z,94905.89
2023-04-05T05:26:12.427Z,94906.06
2023-04-05T05:28:41.247Z,94911.30
2023-04-05T05:31:10.166Z,94910.94
2023-04-05T05:33:43.150Z,94913.63
2023-04-05T05:36:12.102Z,94916.66
2023-04-05T05:38:46.719Z,94925.45
2023-04-05T05:41:15.813Z,94912.10
2023-04-05T05:43:47.413Z,94914.55
2023-04-05T05:46:16.850Z,94918.12
2023-04-05T05:48:46.262Z,94912.10
2023-04-05T05:51:14.984Z,94907.23
2023-04-05T05:53:43.631Z,94916.23
2023-04-05T05:56:26.138Z,94906.57
2023-04-05T05:59:01.717Z,94918.16
2023-04-05T06:01:30.688Z,94915.60
2023-04-05T06:04:01.068Z,94907.09
2023-04-05T06:06:32.735Z,94912.45
2023-04-05T06:09:53.594Z,94913.61
2023-04-05T06:12:31.450Z,94918.59
2023-04-05T06:15:00.286Z,94917.56
2023-04-05T06:17:29.107Z,94915.63
2023-04-05T06:19:59.438Z,94921.03
2023-04-05T06:22:28.779Z,94930.19
2023-04-05T06:24:57.498Z,94930.34
2023-04-05T06:27:26.214Z,94932.87
2023-04-05T06:29:55.884Z,94931.73
2023-04-05T06:32:24.698Z,94928.09
2023-04-05T06:34:53.819Z,94930.24
2023-04-05T06:37:22.784Z,94933.13
2023-04-05T06:39:53.009Z,94931.63
2023-04-05T06:42:23.250Z,94939.28
2023-04-05T06:44:52.007Z,94934.70
2023-04-05T06:47:20.675Z,94943.25
2023-04-05T06:49:49.369Z,94943.48
2023-04-05T06:56:00.735Z,94956.02
2023-04-05T06:58:35.997Z,94963.59
2023-04-05T07:01:04.863Z,94959.41
2023-04-05T07:03:35.019Z,94959.47
2023-04-05T07:06:04.446Z,94980.92
2023-04-05T07:08:34.380Z,94974.16
2023-04-05T07:11:09.914Z,94978.56
2023-04-05T07:13:43.474Z,94981.07
2023-04-05T07:16:14.086Z,94995.41
2023-04-05T07:18:47.429Z,94981.17
2023-04-05T07:21:16.256Z,94984.78
2023-04-05T07:23:53.958Z,94981.19
2023-04-05T07:26:23.213Z,94984.63
2023-04-05T07:28:53.668Z,94987.58
2023-04-05T07:31:22.502Z,94987.08
2023-04-05T07:33:51.349Z,94993.33
2023-04-05T07:36:20.222Z,94996.95
2023-04-05T07:38:53.402Z,94995.23
2023-04-05T07:41:25.394Z,94990.58
2023-04-05T07:43:54.497Z,94996.56
2023-04-05T07:46:32.573Z,95005.20
2023-04-05T07:49:08.093Z,95002.69
2023-04-05T07:51:40.078Z,95007.23
2023-04-05T07:54:08.789Z,95009.21
2023-04-05T07:56:40.706Z,95014.27
2023-04-05T07:59:12.969Z,95009.53
2023-04-05T08:01:42.462Z,95013.69
2023-04-05T08:04:14.850Z,95019.73
2023-04-05T08:06:43.703Z,95022.59
2023-04-05T08:09:12.715Z,95025.65
2023-04-05T08:11:43.341Z,95023.56
2023-04-05T08:17:53.279Z,95028.58
2023-04-05T08:20:24.709Z,95022.47
2023-04-05T08:22:56.359Z,95028.78
2023-04-05T08:25:25.086Z,95035.30
2023-04-05T08:27:57.446Z,95038.89
2023-04-05T08:30:27.270Z,95031.90
2023-04-05T08:32:56.403Z,95042.05
2023-04-05T08:35:25.200Z,95039.84
2023-04-05T08:37:53.922Z,95034.20
2023-04-05T08:40:23.038Z,95044.13
2023-04-05T08:43:01.694Z,95051.71
2023-04-05T08:45:37.373Z,95056.00
2023-04-05T08:48:06.723Z,95040.13
2023-04-05T08:50:37.848Z,95056.33
2023-04-05T08:53:10.224Z,95054.18
2023-04-05T08:55:42.436Z,95048.08
2023-04-05T08:58:17.046Z,95047.28
2023-04-05T09:00:47.192Z,95051.63
2023-04-05T09:03:29.373Z,95055.13
2023-04-05T09:06:00.232Z,95057.45
2023-04-05T09:08:29.307Z,95048.63
2023-04-05T09:10:58.072Z,95071.75
2023-04-05T09:13:26.804Z,95063.92
2023-04-05T09:15:56.627Z,95074.83
2023-04-05T09:18:27.454Z,95070.31
2023-04-05T09:21:06.398Z,95072.20
2023-04-05T09:23:38.592Z,95084.86
2023-04-05T09:26:24.475Z,95071.32
2023-04-05T09:28:53.715Z,95078.23
2023-04-05T09:31:36.256Z,95095.66
2023-04-05T09:34:07.040Z,95078.00
2023-04-05T09:36:38.442Z,95070.05
2023-04-05T09:39:11.095Z,95065.44
2023-04-05T09:41:40.104Z,95063.29
2023-04-05T09:44:08.895Z,95066.92
2023-04-05T09:46:38.726Z,95058.70
2023-04-05T09:49:09.614Z,95073.33
2023-04-05T09:54:44.372Z,95052.20
2023-04-05T09:57:13.712Z,95066.88
2023-04-05T09:59:42.805Z,95059.82
2023-04-05T10:02:12.586Z,95062.24
2023-04-05T10:04:47.087Z,95070.44
2023-04-05T10:07:20.466Z,95058.70
2023-04-05T10:09:49.938Z,95079.55
2023-04-05T10:12:29.755Z,95089.87
2023-04-05T10:14:58.474Z,95071.21
2023-04-05T10:17:33.043Z,95069.78
2023-04-05T10:20:07.438Z,95071.85
2023-04-05T10:22:55.120Z,95077.55
2023-04-05T10:25:45.507Z,95083.08
2023-04-05T10:28:17.142Z,95085.19
2023-04-05T10:30:49.741Z,95092.14
2023-04-05T10:33:33.168Z,95076.16
2023-04-05T10:36:22.097Z,95064.38
2023-04-05T10:39:08.764Z,95070.73
2023-04-05T10:41:40.947Z,95069.70
2023-04-05T10:44:24.874Z,95066.50
2023-04-05T10:46:52.030Z,95063.84
2023-04-05T10:49:33.349Z,95067.60
2023-04-05T10:52:03.511Z,95064.06
2023-04-05T10:54:37.498Z,95064.06
2023-04-05T11:00:36.852Z,95082.63
2023-04-05T11:03:05.542Z,95084.23
2023-04-05T11:05:38.691Z,95083.36
2023-04-05T11:08:09.603Z,95083.36
2023-04-05T11:10:40.879Z,95092.14
2023-04-05T11:13:11.089Z,95092.47
2023-04-05T11:15:40.166Z,95094.10
2023-04-05T11:18:13.539Z,95091.56
2023-04-05T11:20:47.275Z,95091.56
2023-04-05T11:23:20.101Z,95091.98
2023-04-05T11:25:54.539Z,95078.38
2023-04-05T11:28:42.578Z,95082.91
2023-04-05T11:31:19.726Z,95079.23
2023-04-05T11:33:58.542Z,95078.31
2023-04-05T11:36:35.791Z,95092.42
2023-04-05T11:39:22.811Z,95083.77
2023-04-05T11:42:06.670Z,95084.02
2023-04-05T11:44:51.135Z,95072.63
2023-04-05T11:47:25.416Z,95071.56
2023-04-05T11:49:54.184Z,95071.56
2023-04-05T11:52:23.207Z,95057.30
2023-04-05T11:54:53.780Z,95076.70
2023-04-05T11:57:24.424Z,95068.48
2023-04-05T11:59:54.636Z,95069.82
2023-04-05T12:02:23.591Z,95080.69
2023-04-05T12:04:57.979Z,95077.61
2023-04-05T12:07:32.540Z,95080.88
2023-04-05T12:10:11.827Z,95079.70
2023-04-05T12:12:42.630Z,95083.61
2023-04-05T12:15:18.101Z,95076.41
2023-04-05T12:17:50.830Z,95080.72
2023-04-05T12:20:23.499Z,95074.68
2023-04-05T12:22:55.182Z,95087.84
2023-04-05T12:25:27.850Z,95087.84
2023-04-05T12:27:58.910Z,95086.03
2023-04-05T12:30:35.763Z,95086.49
2023-04-05T12:33:12.964Z,95083.39
2023-04-05T12:35:42.224Z,95083.39
2023-04-05T12:38:11.789Z,95075.70
2023-04-05T12:40:42.095Z,95073.60
2023-04-05T12:43:13.143Z,95069.78
2023-04-05T12:45:43.872Z,95070.23
2023-04-05T12:48:16.827Z,95075.18
2023-04-05T12:50:47.316Z,95058.57
2023-04-05T12:53:24.578Z,95069.22
2023-04-05T12:55:58.510Z,95087.38
2023-04-05T12:58:37.592Z,95075.70
2023-04-05T13:01:06.717Z,95068.89
2023-04-05T13:03:37.560Z,95072.75
2023-04-05T13:06:06.423Z,95077.18
2023-04-05T13:08:35.589Z,95087.61
2023-04-05T13:11:04.402Z,95078.14
2023-04-05T13:13:34.431Z,95062.20
2023-04-05T13:16:03.136Z,95073.09
2023-04-05T13:18:32.131Z,95081.88
2023-04-05T13:21:01.252Z,95082.89
2023-04-05T13:23:30.448Z,95086.41
2023-04-05T13:25:59.320Z,95080.56
2023-04-05T13:28:28.598Z,95077.89
2023-04-05T13:31:00.185Z,95077.89
2023-04-05T13:33:30.467Z,95091.91
2023-04-05T13:35:59.442Z,95091.91
2023-04-05T13:38:48.021Z,95081.89
2023-04-05T13:41:20.039Z,95068.97
2023-04-05T13:47:29.600Z,95083.88
2023-04-05T13:53:28.630Z,95078.55
2023-04-05T13:55:57.539Z,95083.58
2023-04-05T13:58:26.238Z,95084.78
2023-04-05T14:00:56.313Z,95086.91
2023-04-05T14:03:26.697Z,95090.34
2023-04-05T14:05:55.825Z,95088.01
2023-04-05T14:08:24.720Z,95095.80
2023-04-05T14:10:53.525Z,95087.12
2023-04-05T14:13:22.212Z,95092.53
2023-04-05T14:15:51.087Z,95093.48
2023-04-05T14:18:19.806Z,95097.12
2023-04-05T14:20:48.683Z,95100.37
2023-04-05T14:23:17.464Z,95096.28
2023-04-05T14:25:46.294Z,95094.23
2023-04-05T14:28:15.121Z,95103.73
2023-04-05T14:34:13.252Z,95034.04
2023-04-05T14:36:42.418Z,95102.66
2023-04-05T14:39:12.684Z,95107.19
2023-04-05T14:41:41.599Z,95105.64
2023-04-05T14:44:10.449Z,95112.41
2023-04-05T14:46:39.132Z,95116.46
2023-04-05T14:49:08.024Z,95104.14
2023-04-05T14:51:38.445Z,95110.61
2023-04-05T14:54:08.286Z,95107.91
2023-04-05T14:56:37.601Z,95102.29
2023-04-05T14:59:06.589Z,95109.54
2023-04-05T15:01:46.605Z,95121.23
2023-04-05T15:04:15.554Z,95124.80
2023-04-05T15:06:46.331Z,95125.16
2023-04-05T15:09:15.437Z,95128.89
2023-04-05T15:11:44.276Z,95124.59
2023-04-05T15:14:24.793Z,95112.33
2023-04-05T15:16:44.806Z,95132.36
2023-04-05T15:22:42.455Z,95135.67
2023-04-05T15:25:11.882Z,95140.42
2023-04-05T15:27:40.865Z,95141.70
2023-04-05T15:30:10.961Z,95085.80
2023-04-05T15:32:39.907Z,95135.52
2023-04-05T15:35:11.680Z,95142.08
2023-04-05T15:37:40.964Z,95140.88
2023-04-05T15:40:10.604Z,95137.09
2023-04-05T15:42:39.364Z,95142.28
2023-04-05T15:45:09.447Z,95145.23
2023-04-05T15:47:38.644Z,95142.14
2023-04-05T15:50:08.372Z,95143.53
2023-04-05T15:52:37.182Z,95146.53
2023-04-05T15:55:07.037Z,95148.34
2023-04-05T15:57:35.809Z,95151.16
2023-04-05T16:00:07.344Z,95152.30
2023-04-05T16:02:38.764Z,95153.63
2023-04-05T16:05:07.727Z,95150.05
2023-04-05T16:07:36.842Z,95151.77
2023-04-05T16:10:07.094Z,95154.15
2023-04-05T16:12:36.065Z,95158.41
2023-04-05T16:15:05.182Z,95146.19
2023-04-05T16:17:34.152Z,95149.47
2023-04-05T16:20:03.629Z,95155.89
2023-04-05T16:22:32.795Z,95149.48
2023-04-05T16:25:01.861Z,95143.75
2023-04-05T16:27:30.962Z,95157.58
2023-04-05T16:29:59.613Z,95155.80
2023-04-05T16:32:28.444Z,95150.23
2023-04-05T16:34:57.641Z,95145.61
2023-04-05T16:37:26.411Z,95152.72
2023-04-05T16:39:55.131Z,95145.84
2023-04-05T16:42:24.036Z,95143.14
2023-04-05T16:48:22.777Z,95146.92
2023-04-05T16:50:51.704Z,95144.07
2023-04-05T16:53:20.506Z,95143.41
2023-04-05T16:55:49.303Z,95135.78
2023-04-05T16:58:18.192Z,95144.88
2023-04-05T17:00:48.430Z,95148.63
2023-04-05T17:03:17.788Z,95145.10
2023-04-05T17:05:46.771Z,95143.16
2023-04-05T17:08:15.409Z,95144.39
2023-04-05T17:10:44.361Z,95149.27
2023-04-05T17:13:16.259Z,95148.34
2023-04-05T17:15:45.327Z,95155.98
2023-04-05T17:18:14.283Z,95155.20
2023-04-05T17:20:43.554Z,95161.97
2023-04-05T17:23:12.269Z,95172.80
2023-04-05T17:25:41.580Z,95156.49
2023-04-05T17:28:10.700Z,95165.37
2023-04-05T17:30:39.585Z,95162.77
2023-04-05T17:33:08.738Z,95164.58
2023-04-05T17:35:41.341Z,95160.87
2023-04-05T17:38:11.673Z,95172.72
2023-04-05T17:40:43.187Z,95171.97
2023-04-05T17:43:12.909Z,95164.73
2023-04-05T17:45:42.511Z,95164.91
2023-04-05T17:48:11.425Z,95161.77
2023-04-05T17:50:43.903Z,95175.31
2023-04-05T17:53:13.537Z,95174.92
2023-04-05T17:58:38.872Z,95185.31
2023-04-05T18:04:37.914Z,95179.80
2023-04-05T18:07:07.721Z,95182.53
2023-04-05T18:09:45.724Z,95176.85
2023-04-05T18:12:14.753Z,95188.84
2023-04-05T18:14:43.678Z,95146.64
2023-04-05T18:17:12.592Z,95190.51
2023-04-05T18:19:54.856Z,95195.97
2023-04-05T18:22:24.446Z,95157.55
2023-04-05T18:24:53.321Z,95195.89
2023-04-05T18:27:30.394Z,95192.83
2023-04-05T18:29:59.807Z,95194.89
2023-04-05T18:32:28.860Z,95195.98
2023-04-05T18:34:57.763Z,95197.66
2023-04-05T18:37:26.483Z,95195.58
2023-04-05T18:39:55.271Z,95196.69
2023-04-05T18:42:32.199Z,95205.72
2023-04-05T18:45:01.538Z,95127.17
2023-04-05T18:47:36.336Z,95204.92
2023-04-05T18:50:04.170Z,95207.67
2023-04-05T18:52:43.230Z,95203.66
2023-04-05T18:55:25.201Z,95213.30
2023-04-05T18:57:55.442Z,95211.03
2023-04-05T19:00:26.365Z,95211.92
2023-04-05T19:02:55.205Z,95211.16
2023-04-05T19:05:27.440Z,95213.70
2023-04-05T19:14:43.235Z,95213.25
2023-04-05T19:17:13.794Z,95226.62
2023-04-05T19:19:43.011Z,95215.70
2023-04-05T19:22:14.989Z,95218.21
2023-04-05T19:24:47.245Z,95218.33
2023-04-05T19:27:19.741Z,95211.42
2023-04-05T19:29:48.828Z,95205.22
2023-04-05T19:32:20.745Z,95207.61
2023-04-05T19:34:49.893Z,95206.37
2023-04-05T19:37:24.556Z,95198.90
2023-04-05T19:39:59.265Z,95199.28
2023-04-05T19:42:28.445Z,95199.86
2023-04-05T19:48:05.061Z,95206.91
2023-04-05T19:54:07.252Z,95196.18
2023-04-05T20:00:05.180Z,95182.84
2023-04-05T20:02:42.620Z,95187.89
2023-04-05T20:05:14.781Z,95183.56
2023-04-05T20:07:45.609Z,95182.14
2023-04-05T20:13:52.926Z,95182.48
2023-04-05T20:16:25.009Z,95182.13
2023-04-05T20:18:55.770Z,95174.84
2023-04-05T20:21:24.776Z,95178.77
2023-04-05T20:24:03.734Z,95178.08
2023-04-05T20:26:36.997Z,95186.94
2023-04-05T20:29:56.008Z,95186.41
2023-04-05T20:35:41.173Z,95187.06
2023-04-05T20:38:16.209Z,95190.11
2023-04-05T20:40:46.706Z,95194.75
2023-04-05T20:43:21.689Z,95199.53
2023-04-05T20:45:52.428Z,95199.16
2023-04-05T20:48:21.223Z,95195.41
2023-04-05T20:50:50.066Z,95197.30
2023-04-05T20:53:19.750Z,95194.52
2023-04-05T20:55:52.747Z,95149.23
2023-04-05T20:58:24.831Z,95195.48
2023-04-05T21:00:53.694Z,95186.88
2023-04-05T21:03:24.282Z,95191.06
2023-04-05T21:05:53.412Z,95196.18
2023-04-05T21:11:23.778Z,95194.94
2023-04-05T21:13:52.649Z,95196.18
2023-04-05T21:16:34.123Z,95204.98
2023-04-05T21:19:02.906Z,95199.27
2023-04-05T21:21:34.698Z,95200.45
2023-04-05T21:24:03.674Z,95198.20
2023-04-05T21:26:32.542Z,95208.08
2023-04-05T21:29:09.240Z,95204.34
2023-04-05T21:31:34.865Z,95198.69
2023-04-05T21:34:03.732Z,95205.00
2023-04-05T21:40:16.868Z,95197.62
2023-04-05T21:42:51.542Z,95197.24
2023-04-05T21:48:24.931Z,95207.04
2023-04-05T21:50:46.158Z,95205.12
2023-04-05T21:53:19.365Z,95199.34
2023-04-05T21:55:50.706Z,95201.19
2023-04-05T21:58:19.415Z,95199.58
2023-04-05T22:00:51.169Z,95187.01
2023-04-05T22:03:20.234Z,95190.21
2023-04-05T22:05:48.937Z,95191.64
2023-04-05T22:08:17.794Z,95187.41
2023-04-05T22:10:46.552Z,95152.93
2023-04-05T22:13:15.248Z,95182.35
2023-04-05T22:15:44.378Z,95169.36
2023-04-05T22:18:13.457Z,95174.48
2023-04-05T22:20:43.929Z,95175.33
2023-04-05T22:23:12.757Z,95176.34
2023-04-05T22:25:41.582Z,95176.14
2023-04-05T22:28:12.145Z,95174.25
2023-04-05T22:30:44.326Z,95165.61
2023-04-05T22:33:13.105Z,95164.61
2023-04-05T22:35:42.643Z,95164.42
2023-04-05T22:38:11.371Z,95164.66
2023-04-05T22:40:40.255Z,95163.19
2023-04-05T22:43:09.827Z,95156.52
2023-04-05T22:45:38.919Z,95160.45
2023-04-05T22:48:07.951Z,95157.94
2023-04-05T22:50:36.834Z,95155.73
2023-04-05T22:53:05.620Z,95135.80
2023-04-05T22:55:34.375Z,95148.77
2023-04-05T22:58:03.081Z,95151.76
2023-04-05T23:00:31.765Z,95156.11
2023-04-05T23:03:00.838Z,95142.22
2023-04-05T23:05:29.804Z,95142.33
2023-04-05T23:07:58.539Z,95143.78
2023-04-05T23:10:27.337Z,95141.97
2023-04-05T23:12:56.378Z,95143.28
2023-04-05T23:15:25.131Z,95135.80
2023-04-05T23:17:53.935Z,95126.62
2023-04-05T23:20:22.705Z,95129.72
2023-04-05T23:22:51.382Z,95129.82
2023-04-05T23:25:20.218Z,95128.94
2023-04-05T23:27:48.937Z,95130.79
2023-04-05T23:30:17.717Z,95127.99
2023-04-05T23:32:46.407Z,95124.49
2023-04-05T23:35:15.591Z,95113.88
2023-04-05T23:37:45.743Z,95116.26
2023-04-05T23:40:14.663Z,95112.29
2023-04-05T23:42:43.397Z,95109.83
2023-04-05T23:45:12.596Z,95109.01
2023-04-05T23:47:41.387Z,95102.92
2023-04-05T23:50:11.436Z,95102.98
2023-04-05T23:52:40.818Z,95107.34
2023-04-05T23:55:09.979Z,95103.36
2023-04-05T23:57:38.561Z,95104.59
